sensor_id;sensor_type;location;lat;lon;timestamp;P1;durP1;ratioP1;P2;durP2;ratioP2
12050;SDS011;6086;43.546;26.474;2022-07-29T00:00:12;3.80;;;3.20;;
12050;SDS011;6086;43.546;26.474;2022-07-29T00:02:40;3.10;;;2.80;;
12050;SDS011;6086;43.546;26.474;2022-07-29T00:05:07;4.23;;;2.70;;
12050;SDS011;6086;43.546;26.474;2022-07-29T00:07:36;5.03;;;2.93;;
12050;SDS011;6086;43.546;26.474;2022-07-29T00:10:05;4.50;;;2.93;;
12050;SDS011;6086;43.546;26.474;2022-07-29T00:12:32;3.43;;;3.00;;
12050;SDS011;6086;43.546;26.474;2022-07-29T00:14:59;3.50;;;2.63;;
12050;SDS011;6086;43.546;26.474;2022-07-29T00:17:26;3.00;;;2.80;;
12050;SDS011;6086;43.546;26.474;2022-07-29T00:19:53;2.90;;;2.70;;
12050;SDS011;6086;43.546;26.474;2022-07-29T00:22:20;3.07;;;2.87;;
12050;SDS011;6086;43.546;26.474;2022-07-29T00:24:47;2.80;;;2.60;;
12050;SDS011;6086;43.546;26.474;2022-07-29T00:27:16;4.73;;;3.23;;
12050;SDS011;6086;43.546;26.474;2022-07-29T00:29:43;3.43;;;2.60;;
12050;SDS011;6086;43.546;26.474;2022-07-29T00:32:10;3.23;;;3.00;;
12050;SDS011;6086;43.546;26.474;2022-07-29T00:34:37;3.33;;;3.10;;
12050;SDS011;6086;43.546;26.474;2022-07-29T00:37:21;3.20;;;2.90;;
12050;SDS011;6086;43.546;26.474;2022-07-29T00:39:48;4.40;;;3.10;;
12050;SDS011;6086;43.546;26.474;2022-07-29T00:42:17;4.27;;;3.30;;
12050;SDS011;6086;43.546;26.474;2022-07-29T00:44:44;3.20;;;2.97;;
12050;SDS011;6086;43.546;26.474;2022-07-29T00:47:11;3.50;;;3.20;;
12050;SDS011;6086;43.546;26.474;2022-07-29T00:49:38;3.43;;;3.13;;
12050;SDS011;6086;43.546;26.474;2022-07-29T00:52:06;3.60;;;3.30;;
12050;SDS011;6086;43.546;26.474;2022-07-29T00:54:35;3.77;;;3.47;;
12050;SDS011;6086;43.546;26.474;2022-07-29T00:57:05;3.80;;;3.40;;
12050;SDS011;6086;43.546;26.474;2022-07-29T00:59:35;3.63;;;3.33;;
12050;SDS011;6086;43.546;26.474;2022-07-29T01:02:02;4.10;;;3.23;;
12050;SDS011;6086;43.546;26.474;2022-07-29T01:04:30;3.57;;;3.27;;
12050;SDS011;6086;43.546;26.474;2022-07-29T01:06:58;3.73;;;3.43;;
12050;SDS011;6086;43.546;26.474;2022-07-29T01:09:27;3.33;;;3.03;;
12050;SDS011;6086;43.546;26.474;2022-07-29T01:11:54;3.83;;;3.53;;
12050;SDS011;6086;43.546;26.474;2022-07-29T01:14:22;4.60;;;3.70;;
12050;SDS011;6086;43.546;26.474;2022-07-29T01:16:51;3.43;;;3.23;;
12050;SDS011;6086;43.546;26.474;2022-07-29T01:19:31;3.80;;;3.33;;
12050;SDS011;6086;43.546;26.474;2022-07-29T01:22:15;3.33;;;3.03;;
12050;SDS011;6086;43.546;26.474;2022-07-29T01:24:57;3.70;;;3.40;;
12050;SDS011;6086;43.546;26.474;2022-07-29T01:27:47;3.87;;;2.93;;
12050;SDS011;6086;43.546;26.474;2022-07-29T01:30:28;5.23;;;3.43;;
12050;SDS011;6086;43.546;26.474;2022-07-29T01:32:59;4.60;;;3.00;;
12050;SDS011;6086;43.546;26.474;2022-07-29T01:35:28;3.77;;;3.30;;
12050;SDS011;6086;43.546;26.474;2022-07-29T01:38:01;3.47;;;3.13;;
12050;SDS011;6086;43.546;26.474;2022-07-29T01:40:33;3.97;;;3.57;;
12050;SDS011;6086;43.546;26.474;2022-07-29T01:43:05;4.07;;;3.10;;
12050;SDS011;6086;43.546;26.474;2022-07-29T01:45:40;5.10;;;3.37;;
12050;SDS011;6086;43.546;26.474;2022-07-29T01:48:10;3.77;;;3.37;;
12050;SDS011;6086;43.546;26.474;2022-07-29T01:50:46;3.90;;;3.50;;
12050;SDS011;6086;43.546;26.474;2022-07-29T01:53:18;3.57;;;3.27;;
12050;SDS011;6086;43.546;26.474;2022-07-29T01:55:51;3.50;;;3.23;;
12050;SDS011;6086;43.546;26.474;2022-07-29T01:58:20;3.70;;;3.40;;
12050;SDS011;6086;43.546;26.474;2022-07-29T02:00:50;4.47;;;3.50;;
12050;SDS011;6086;43.546;26.474;2022-07-29T02:03:18;3.60;;;3.30;;
12050;SDS011;6086;43.546;26.474;2022-07-29T02:05:46;4.40;;;4.00;;
12050;SDS011;6086;43.546;26.474;2022-07-29T02:08:15;5.07;;;3.63;;
12050;SDS011;6086;43.546;26.474;2022-07-29T02:10:44;3.77;;;3.47;;
12050;SDS011;6086;43.546;26.474;2022-07-29T02:13:13;3.40;;;3.10;;
12050;SDS011;6086;43.546;26.474;2022-07-29T02:15:43;4.37;;;3.53;;
12050;SDS011;6086;43.546;26.474;2022-07-29T02:18:15;3.70;;;3.40;;
12050;SDS011;6086;43.546;26.474;2022-07-29T02:20:44;3.90;;;3.40;;
12050;SDS011;6086;43.546;26.474;2022-07-29T02:23:15;3.67;;;3.37;;
12050;SDS011;6086;43.546;26.474;2022-07-29T02:25:46;4.33;;;3.90;;
12050;SDS011;6086;43.546;26.474;2022-07-29T02:28:15;3.73;;;3.43;;
12050;SDS011;6086;43.546;26.474;2022-07-29T02:30:43;4.90;;;3.57;;
12050;SDS011;6086;43.546;26.474;2022-07-29T02:33:14;4.17;;;3.07;;
12050;SDS011;6086;43.546;26.474;2022-07-29T02:35:43;3.70;;;2.83;;
12050;SDS011;6086;43.546;26.474;2022-07-29T02:38:12;3.80;;;3.50;;
12050;SDS011;6086;43.546;26.474;2022-07-29T02:40:58;3.10;;;2.90;;
12050;SDS011;6086;43.546;26.474;2022-07-29T02:43:26;3.57;;;3.27;;
12050;SDS011;6086;43.546;26.474;2022-07-29T02:45:56;4.67;;;3.37;;
12050;SDS011;6086;43.546;26.474;2022-07-29T02:48:28;4.10;;;3.10;;
12050;SDS011;6086;43.546;26.474;2022-07-29T02:51:04;4.97;;;4.00;;
12050;SDS011;6086;43.546;26.474;2022-07-29T02:53:34;3.93;;;3.53;;
12050;SDS011;6086;43.546;26.474;2022-07-29T02:56:06;3.57;;;3.27;;
12050;SDS011;6086;43.546;26.474;2022-07-29T02:58:38;4.20;;;3.70;;
12050;SDS011;6086;43.546;26.474;2022-07-29T03:01:08;4.17;;;3.80;;
12050;SDS011;6086;43.546;26.474;2022-07-29T03:03:40;4.43;;;3.70;;
12050;SDS011;6086;43.546;26.474;2022-07-29T03:06:10;4.23;;;3.83;;
12050;SDS011;6086;43.546;26.474;2022-07-29T03:08:39;4.23;;;3.83;;
12050;SDS011;6086;43.546;26.474;2022-07-29T03:11:07;4.07;;;3.70;;
12050;SDS011;6086;43.546;26.474;2022-07-29T03:13:36;4.00;;;3.60;;
12050;SDS011;6086;43.546;26.474;2022-07-29T03:16:04;4.87;;;3.33;;
12050;SDS011;6086;43.546;26.474;2022-07-29T03:18:31;3.70;;;3.40;;
12050;SDS011;6086;43.546;26.474;2022-07-29T03:21:00;5.03;;;3.40;;
12050;SDS011;6086;43.546;26.474;2022-07-29T03:23:28;4.07;;;3.40;;
12050;SDS011;6086;43.546;26.474;2022-07-29T03:25:55;9.57;;;4.73;;
12050;SDS011;6086;43.546;26.474;2022-07-29T03:28:22;3.90;;;3.50;;
12050;SDS011;6086;43.546;26.474;2022-07-29T03:30:52;4.40;;;4.00;;
12050;SDS011;6086;43.546;26.474;2022-07-29T03:33:19;4.77;;;3.50;;
12050;SDS011;6086;43.546;26.474;2022-07-29T03:35:47;4.83;;;3.77;;
12050;SDS011;6086;43.546;26.474;2022-07-29T03:38:15;6.53;;;3.93;;
12050;SDS011;6086;43.546;26.474;2022-07-29T03:40:43;6.90;;;4.27;;
12050;SDS011;6086;43.546;26.474;2022-07-29T03:43:15;4.20;;;3.90;;
12050;SDS011;6086;43.546;26.474;2022-07-29T03:45:45;4.10;;;3.80;;
12050;SDS011;6086;43.546;26.474;2022-07-29T03:48:16;5.60;;;4.27;;
12050;SDS011;6086;43.546;26.474;2022-07-29T03:50:45;6.03;;;3.90;;
12050;SDS011;6086;43.546;26.474;2022-07-29T03:53:12;4.57;;;4.10;;
12050;SDS011;6086;43.546;26.474;2022-07-29T03:55:41;5.37;;;4.13;;
12050;SDS011;6086;43.546;26.474;2022-07-29T03:58:11;3.80;;;3.50;;
12050;SDS011;6086;43.546;26.474;2022-07-29T04:00:39;5.13;;;3.80;;
12050;SDS011;6086;43.546;26.474;2022-07-29T04:03:08;3.97;;;3.63;;
12050;SDS011;6086;43.546;26.474;2022-07-29T04:05:35;4.53;;;3.80;;
12050;SDS011;6086;43.546;26.474;2022-07-29T04:08:14;4.63;;;3.63;;
12050;SDS011;6086;43.546;26.474;2022-07-29T04:10:42;4.17;;;3.83;;
12050;SDS011;6086;43.546;26.474;2022-07-29T04:13:09;4.17;;;3.77;;
12050;SDS011;6086;43.546;26.474;2022-07-29T04:27:29;3.70;;;3.30;;
12050;SDS011;6086;43.546;26.474;2022-07-29T04:29:56;3.33;;;3.00;;
12050;SDS011;6086;43.546;26.474;2022-07-29T04:32:23;7.53;;;3.50;;
12050;SDS011;6086;43.546;26.474;2022-07-29T04:34:51;3.27;;;3.07;;
12050;SDS011;6086;43.546;26.474;2022-07-29T04:37:18;5.53;;;3.63;;
12050;SDS011;6086;43.546;26.474;2022-07-29T04:39:45;3.73;;;3.40;;
12050;SDS011;6086;43.546;26.474;2022-07-29T04:42:12;3.60;;;3.30;;
12050;SDS011;6086;43.546;26.474;2022-07-29T04:44:40;4.67;;;3.37;;
12050;SDS011;6086;43.546;26.474;2022-07-29T04:47:07;5.60;;;3.40;;
12050;SDS011;6086;43.546;26.474;2022-07-29T04:49:37;4.17;;;3.23;;
12050;SDS011;6086;43.546;26.474;2022-07-29T04:52:04;5.67;;;3.80;;
12050;SDS011;6086;43.546;26.474;2022-07-29T04:54:32;5.33;;;3.83;;
12050;SDS011;6086;43.546;26.474;2022-07-29T04:56:59;9.33;;;6.97;;
12050;SDS011;6086;43.546;26.474;2022-07-29T04:59:26;4.23;;;3.53;;
12050;SDS011;6086;43.546;26.474;2022-07-29T05:01:54;6.63;;;3.80;;
12050;SDS011;6086;43.546;26.474;2022-07-29T05:04:21;4.60;;;4.10;;
12050;SDS011;6086;43.546;26.474;2022-07-29T05:06:48;4.60;;;4.20;;
12050;SDS011;6086;43.546;26.474;2022-07-29T05:09:15;4.67;;;4.37;;
12050;SDS011;6086;43.546;26.474;2022-07-29T05:11:42;4.60;;;4.20;;
12050;SDS011;6086;43.546;26.474;2022-07-29T05:14:09;4.67;;;4.17;;
12050;SDS011;6086;43.546;26.474;2022-07-29T05:16:36;4.70;;;4.30;;
12050;SDS011;6086;43.546;26.474;2022-07-29T05:19:05;5.33;;;4.13;;
12050;SDS011;6086;43.546;26.474;2022-07-29T05:21:32;4.60;;;4.20;;
12050;SDS011;6086;43.546;26.474;2022-07-29T05:23:59;4.40;;;4.00;;
12050;SDS011;6086;43.546;26.474;2022-07-29T05:26:27;8.60;;;5.00;;
12050;SDS011;6086;43.546;26.474;2022-07-29T05:28:54;7.20;;;4.30;;
12050;SDS011;6086;43.546;26.474;2022-07-29T05:31:22;6.40;;;4.13;;
12050;SDS011;6086;43.546;26.474;2022-07-29T05:33:48;6.10;;;4.37;;
12050;SDS011;6086;43.546;26.474;2022-07-29T05:36:17;5.00;;;4.60;;
12050;SDS011;6086;43.546;26.474;2022-07-29T05:38:44;6.40;;;4.50;;
12050;SDS011;6086;43.546;26.474;2022-07-29T05:41:11;6.30;;;4.40;;
12050;SDS011;6086;43.546;26.474;2022-07-29T05:43:37;4.63;;;4.23;;
12050;SDS011;6086;43.546;26.474;2022-07-29T05:46:04;11.93;;;4.73;;
12050;SDS011;6086;43.546;26.474;2022-07-29T05:48:31;5.27;;;4.07;;
12050;SDS011;6086;43.546;26.474;2022-07-29T05:51:01;5.83;;;3.40;;
12050;SDS011;6086;43.546;26.474;2022-07-29T05:53:30;3.80;;;3.30;;
12050;SDS011;6086;43.546;26.474;2022-07-29T05:55:57;6.80;;;4.03;;
12050;SDS011;6086;43.546;26.474;2022-07-29T05:58:24;7.23;;;3.60;;
12050;SDS011;6086;43.546;26.474;2022-07-29T06:01:07;5.80;;;4.03;;
12050;SDS011;6086;43.546;26.474;2022-07-29T06:03:33;6.23;;;3.73;;
12050;SDS011;6086;43.546;26.474;2022-07-29T06:06:02;4.20;;;3.80;;
12050;SDS011;6086;43.546;26.474;2022-07-29T06:08:32;3.93;;;3.50;;
12050;SDS011;6086;43.546;26.474;2022-07-29T06:10:59;4.43;;;3.90;;
12050;SDS011;6086;43.546;26.474;2022-07-29T06:13:26;4.10;;;3.70;;
12050;SDS011;6086;43.546;26.474;2022-07-29T06:15:53;4.00;;;3.60;;
12050;SDS011;6086;43.546;26.474;2022-07-29T06:18:20;4.13;;;3.73;;
12050;SDS011;6086;43.546;26.474;2022-07-29T06:20:49;3.40;;;3.20;;
12050;SDS011;6086;43.546;26.474;2022-07-29T06:23:16;5.43;;;3.67;;
12050;SDS011;6086;43.546;26.474;2022-07-29T06:25:49;5.30;;;3.20;;
12050;SDS011;6086;43.546;26.474;2022-07-29T06:28:17;3.23;;;2.90;;
12050;SDS011;6086;43.546;26.474;2022-07-29T06:30:44;5.97;;;3.47;;
12050;SDS011;6086;43.546;26.474;2022-07-29T06:33:16;3.20;;;2.73;;
12050;SDS011;6086;43.546;26.474;2022-07-29T06:35:44;2.60;;;2.40;;
12050;SDS011;6086;43.546;26.474;2022-07-29T06:38:12;3.10;;;2.80;;
12050;SDS011;6086;43.546;26.474;2022-07-29T06:40:40;3.93;;;3.13;;
12050;SDS011;6086;43.546;26.474;2022-07-29T06:43:28;3.13;;;2.73;;
12050;SDS011;6086;43.546;26.474;2022-07-29T06:46:02;3.03;;;2.73;;
12050;SDS011;6086;43.546;26.474;2022-07-29T06:48:30;3.37;;;3.03;;
12050;SDS011;6086;43.546;26.474;2022-07-29T06:50:57;2.97;;;2.77;;
12050;SDS011;6086;43.546;26.474;2022-07-29T06:53:25;3.27;;;2.77;;
12050;SDS011;6086;43.546;26.474;2022-07-29T06:55:52;7.77;;;3.33;;
12050;SDS011;6086;43.546;26.474;2022-07-29T06:58:19;3.10;;;2.83;;
12050;SDS011;6086;43.546;26.474;2022-07-29T07:00:47;2.70;;;2.50;;
12050;SDS011;6086;43.546;26.474;2022-07-29T07:03:15;2.83;;;2.63;;
12050;SDS011;6086;43.546;26.474;2022-07-29T07:05:42;3.03;;;2.67;;
12050;SDS011;6086;43.546;26.474;2022-07-29T07:08:10;2.97;;;2.67;;
12050;SDS011;6086;43.546;26.474;2022-07-29T07:10:37;5.07;;;2.60;;
12050;SDS011;6086;43.546;26.474;2022-07-29T07:13:04;3.03;;;2.77;;
12050;SDS011;6086;43.546;26.474;2022-07-29T07:15:31;2.73;;;2.53;;
12050;SDS011;6086;43.546;26.474;2022-07-29T07:18:00;3.37;;;2.60;;
12050;SDS011;6086;43.546;26.474;2022-07-29T07:20:27;2.53;;;2.33;;
12050;SDS011;6086;43.546;26.474;2022-07-29T07:22:54;3.67;;;2.63;;
12050;SDS011;6086;43.546;26.474;2022-07-29T07:25:21;4.30;;;2.37;;
12050;SDS011;6086;43.546;26.474;2022-07-29T07:27:48;2.60;;;2.40;;
12050;SDS011;6086;43.546;26.474;2022-07-29T07:30:15;4.00;;;2.70;;
12050;SDS011;6086;43.546;26.474;2022-07-29T07:32:42;2.80;;;2.60;;
12050;SDS011;6086;43.546;26.474;2022-07-29T07:35:11;3.03;;;2.43;;
12050;SDS011;6086;43.546;26.474;2022-07-29T07:37:38;2.53;;;2.40;;
12050;SDS011;6086;43.546;26.474;2022-07-29T07:40:06;2.80;;;2.50;;
12050;SDS011;6086;43.546;26.474;2022-07-29T07:42:34;4.17;;;2.60;;
12050;SDS011;6086;43.546;26.474;2022-07-29T07:45:01;3.50;;;2.77;;
12050;SDS011;6086;43.546;26.474;2022-07-29T07:47:28;2.77;;;2.57;;
12050;SDS011;6086;43.546;26.474;2022-07-29T07:49:55;3.70;;;2.90;;
12050;SDS011;6086;43.546;26.474;2022-07-29T07:52:23;2.33;;;2.13;;
12050;SDS011;6086;43.546;26.474;2022-07-29T07:54:50;3.00;;;2.30;;
12050;SDS011;6086;43.546;26.474;2022-07-29T07:57:18;2.23;;;2.10;;
12050;SDS011;6086;43.546;26.474;2022-07-29T07:59:45;3.37;;;2.10;;
12050;SDS011;6086;43.546;26.474;2022-07-29T08:02:11;4.63;;;2.50;;
12050;SDS011;6086;43.546;26.474;2022-07-29T08:04:38;2.60;;;2.10;;
12050;SDS011;6086;43.546;26.474;2022-07-29T08:07:06;2.97;;;2.77;;
12050;SDS011;6086;43.546;26.474;2022-07-29T08:09:35;2.60;;;2.40;;
12050;SDS011;6086;43.546;26.474;2022-07-29T08:12:02;3.03;;;2.80;;
12050;SDS011;6086;43.546;26.474;2022-07-29T08:14:31;3.17;;;2.70;;
12050;SDS011;6086;43.546;26.474;2022-07-29T08:16:58;2.77;;;2.50;;
12050;SDS011;6086;43.546;26.474;2022-07-29T08:19:25;3.60;;;2.47;;
12050;SDS011;6086;43.546;26.474;2022-07-29T08:21:52;3.47;;;2.57;;
12050;SDS011;6086;43.546;26.474;2022-07-29T08:24:19;2.50;;;2.40;;
12050;SDS011;6086;43.546;26.474;2022-07-29T08:27:05;2.57;;;2.37;;
12050;SDS011;6086;43.546;26.474;2022-07-29T08:29:32;2.73;;;2.53;;
12050;SDS011;6086;43.546;26.474;2022-07-29T08:31:59;2.60;;;2.40;;
12050;SDS011;6086;43.546;26.474;2022-07-29T08:34:26;3.17;;;2.80;;
12050;SDS011;6086;43.546;26.474;2022-07-29T08:36:54;2.97;;;2.40;;
12050;SDS011;6086;43.546;26.474;2022-07-29T08:39:21;4.13;;;2.50;;
12050;SDS011;6086;43.546;26.474;2022-07-29T08:41:49;2.60;;;2.20;;
12050;SDS011;6086;43.546;26.474;2022-07-29T08:44:17;2.57;;;2.47;;
12050;SDS011;6086;43.546;26.474;2022-07-29T08:46:44;2.83;;;2.63;;
12050;SDS011;6086;43.546;26.474;2022-07-29T08:49:11;2.33;;;2.23;;
12050;SDS011;6086;43.546;26.474;2022-07-29T08:51:38;2.50;;;2.30;;
12050;SDS011;6086;43.546;26.474;2022-07-29T08:54:07;2.30;;;2.07;;
12050;SDS011;6086;43.546;26.474;2022-07-29T08:56:35;3.50;;;2.47;;
12050;SDS011;6086;43.546;26.474;2022-07-29T08:59:04;2.63;;;2.43;;
12050;SDS011;6086;43.546;26.474;2022-07-29T09:01:37;3.33;;;2.50;;
12050;SDS011;6086;43.546;26.474;2022-07-29T09:04:06;2.83;;;2.43;;
12050;SDS011;6086;43.546;26.474;2022-07-29T09:06:42;5.10;;;2.70;;
12050;SDS011;6086;43.546;26.474;2022-07-29T09:09:11;2.50;;;2.30;;
12050;SDS011;6086;43.546;26.474;2022-07-29T09:11:39;2.57;;;2.37;;
12050;SDS011;6086;43.546;26.474;2022-07-29T09:14:07;2.37;;;2.17;;
12050;SDS011;6086;43.546;26.474;2022-07-29T09:19:22;2.17;;;2.00;;
12050;SDS011;6086;43.546;26.474;2022-07-29T09:21:51;3.57;;;3.27;;
12050;SDS011;6086;43.546;26.474;2022-07-29T09:24:26;2.80;;;2.47;;
12050;SDS011;6086;43.546;26.474;2022-07-29T09:27:02;3.90;;;3.20;;
12050;SDS011;6086;43.546;26.474;2022-07-29T09:29:34;3.80;;;2.60;;
12050;SDS011;6086;43.546;26.474;2022-07-29T09:32:05;2.73;;;2.50;;
12050;SDS011;6086;43.546;26.474;2022-07-29T09:34:36;2.43;;;2.33;;
12050;SDS011;6086;43.546;26.474;2022-07-29T09:37:03;2.90;;;2.60;;
12050;SDS011;6086;43.546;26.474;2022-07-29T09:39:31;2.67;;;2.47;;
12050;SDS011;6086;43.546;26.474;2022-07-29T09:42:01;3.77;;;2.50;;
12050;SDS011;6086;43.546;26.474;2022-07-29T09:44:42;4.73;;;3.17;;
12050;SDS011;6086;43.546;26.474;2022-07-29T09:47:12;2.80;;;2.60;;
12050;SDS011;6086;43.546;26.474;2022-07-29T09:52:27;2.13;;;2.03;;
12050;SDS011;6086;43.546;26.474;2022-07-29T09:55:03;2.83;;;2.53;;
12050;SDS011;6086;43.546;26.474;2022-07-29T09:57:31;2.70;;;2.50;;
12050;SDS011;6086;43.546;26.474;2022-07-29T10:03:14;3.40;;;2.50;;
12050;SDS011;6086;43.546;26.474;2022-07-29T10:05:43;5.57;;;2.67;;
12050;SDS011;6086;43.546;26.474;2022-07-29T10:08:11;2.87;;;2.67;;
12050;SDS011;6086;43.546;26.474;2022-07-29T10:10:39;3.27;;;3.07;;
12050;SDS011;6086;43.546;26.474;2022-07-29T10:13:08;2.80;;;2.60;;
12050;SDS011;6086;43.546;26.474;2022-07-29T10:15:36;2.90;;;2.67;;
12050;SDS011;6086;43.546;26.474;2022-07-29T10:18:06;2.70;;;2.50;;
12050;SDS011;6086;43.546;26.474;2022-07-29T10:20:35;2.60;;;2.50;;
12050;SDS011;6086;43.546;26.474;2022-07-29T10:23:03;2.70;;;2.50;;
12050;SDS011;6086;43.546;26.474;2022-07-29T10:25:31;2.43;;;2.23;;
12050;SDS011;6086;43.546;26.474;2022-07-29T10:27:58;6.83;;;2.43;;
12050;SDS011;6086;43.546;26.474;2022-07-29T10:35:57;2.87;;;2.53;;
12050;SDS011;6086;43.546;26.474;2022-07-29T10:38:43;4.37;;;2.77;;
12050;SDS011;6086;43.546;26.474;2022-07-29T10:44:23;2.80;;;2.60;;
12050;SDS011;6086;43.546;26.474;2022-07-29T10:46:52;2.30;;;2.20;;
12050;SDS011;6086;43.546;26.474;2022-07-29T10:49:20;2.70;;;2.50;;
12050;SDS011;6086;43.546;26.474;2022-07-29T10:52:05;2.77;;;2.57;;
12050;SDS011;6086;43.546;26.474;2022-07-29T10:54:36;3.67;;;2.30;;
12050;SDS011;6086;43.546;26.474;2022-07-29T10:57:14;2.80;;;2.60;;
12050;SDS011;6086;43.546;26.474;2022-07-29T10:59:44;2.43;;;2.23;;
12050;SDS011;6086;43.546;26.474;2022-07-29T11:05:13;3.63;;;2.50;;
12050;SDS011;6086;43.546;26.474;2022-07-29T11:10:46;2.57;;;2.43;;
12050;SDS011;6086;43.546;26.474;2022-07-29T11:16:11;2.67;;;2.47;;
12050;SDS011;6086;43.546;26.474;2022-07-29T11:21:39;2.87;;;2.50;;
12050;SDS011;6086;43.546;26.474;2022-07-29T11:24:14;2.93;;;2.40;;
12050;SDS011;6086;43.546;26.474;2022-07-29T11:26:42;4.93;;;3.13;;
12050;SDS011;6086;43.546;26.474;2022-07-29T11:29:18;2.33;;;2.23;;
12050;SDS011;6086;43.546;26.474;2022-07-29T11:31:48;2.27;;;2.17;;
12050;SDS011;6086;43.546;26.474;2022-07-29T11:34:23;2.47;;;2.27;;
12050;SDS011;6086;43.546;26.474;2022-07-29T11:42:44;2.80;;;2.60;;
12050;SDS011;6086;43.546;26.474;2022-07-29T11:45:19;3.07;;;2.43;;
12050;SDS011;6086;43.546;26.474;2022-07-29T11:47:48;2.60;;;2.40;;
12050;SDS011;6086;43.546;26.474;2022-07-29T11:50:26;2.80;;;2.60;;
12050;SDS011;6086;43.546;26.474;2022-07-29T11:52:55;2.80;;;2.60;;
12050;SDS011;6086;43.546;26.474;2022-07-29T11:55:24;2.70;;;2.50;;
12050;SDS011;6086;43.546;26.474;2022-07-29T11:57:52;2.23;;;2.13;;
12050;SDS011;6086;43.546;26.474;2022-07-29T12:00:24;2.60;;;2.40;;
12050;SDS011;6086;43.546;26.474;2022-07-29T12:02:55;3.10;;;2.80;;
12050;SDS011;6086;43.546;26.474;2022-07-29T12:05:33;3.03;;;2.40;;
12050;SDS011;6086;43.546;26.474;2022-07-29T12:08:09;2.73;;;2.53;;
12050;SDS011;6086;43.546;26.474;2022-07-29T12:10:39;2.77;;;2.40;;
12050;SDS011;6086;43.546;26.474;2022-07-29T12:13:08;2.67;;;2.43;;
12050;SDS011;6086;43.546;26.474;2022-07-29T12:15:36;2.70;;;2.50;;
12050;SDS011;6086;43.546;26.474;2022-07-29T12:18:13;2.80;;;2.60;;
12050;SDS011;6086;43.546;26.474;2022-07-29T12:20:42;2.77;;;2.57;;
12050;SDS011;6086;43.546;26.474;2022-07-29T12:23:09;2.67;;;2.20;;
12050;SDS011;6086;43.546;26.474;2022-07-29T12:25:40;2.87;;;2.67;;
12050;SDS011;6086;43.546;26.474;2022-07-29T12:28:09;2.50;;;2.30;;
12050;SDS011;6086;43.546;26.474;2022-07-29T12:30:41;2.97;;;2.77;;
12050;SDS011;6086;43.546;26.474;2022-07-29T12:33:10;3.23;;;2.83;;
12050;SDS011;6086;43.546;26.474;2022-07-29T12:35:39;3.17;;;2.57;;
12050;SDS011;6086;43.546;26.474;2022-07-29T12:38:09;2.37;;;2.27;;
12050;SDS011;6086;43.546;26.474;2022-07-29T12:40:36;2.57;;;2.40;;
12050;SDS011;6086;43.546;26.474;2022-07-29T12:43:12;2.60;;;2.40;;
12050;SDS011;6086;43.546;26.474;2022-07-29T12:45:41;2.77;;;2.57;;
12050;SDS011;6086;43.546;26.474;2022-07-29T12:48:10;2.60;;;2.50;;
12050;SDS011;6086;43.546;26.474;2022-07-29T12:50:51;3.77;;;2.87;;
12050;SDS011;6086;43.546;26.474;2022-07-29T12:53:20;3.17;;;2.87;;
12050;SDS011;6086;43.546;26.474;2022-07-29T12:55:48;2.27;;;2.17;;
12050;SDS011;6086;43.546;26.474;2022-07-29T12:58:32;3.70;;;2.63;;
12050;SDS011;6086;43.546;26.474;2022-07-29T13:01:08;3.23;;;2.63;;
12050;SDS011;6086;43.546;26.474;2022-07-29T13:06:27;3.60;;;2.47;;
12050;SDS011;6086;43.546;26.474;2022-07-29T13:08:59;4.93;;;2.97;;
12050;SDS011;6086;43.546;26.474;2022-07-29T13:11:29;2.70;;;2.50;;
12050;SDS011;6086;43.546;26.474;2022-07-29T13:13:58;2.47;;;2.37;;
12050;SDS011;6086;43.546;26.474;2022-07-29T13:16:25;2.80;;;2.57;;
12050;SDS011;6086;43.546;26.474;2022-07-29T13:19:09;2.60;;;2.40;;
12050;SDS011;6086;43.546;26.474;2022-07-29T13:21:37;2.77;;;2.53;;
12050;SDS011;6086;43.546;26.474;2022-07-29T13:24:05;3.77;;;2.70;;
12050;SDS011;6086;43.546;26.474;2022-07-29T13:26:33;3.20;;;3.00;;
12050;SDS011;6086;43.546;26.474;2022-07-29T13:29:03;3.53;;;2.70;;
12050;SDS011;6086;43.546;26.474;2022-07-29T13:31:30;3.40;;;2.60;;
12050;SDS011;6086;43.546;26.474;2022-07-29T13:33:57;2.53;;;2.33;;
12050;SDS011;6086;43.546;26.474;2022-07-29T13:36:23;3.43;;;2.67;;
12050;SDS011;6086;43.546;26.474;2022-07-29T13:38:51;2.43;;;2.23;;
12050;SDS011;6086;43.546;26.474;2022-07-29T13:41:18;2.93;;;2.70;;
12050;SDS011;6086;43.546;26.474;2022-07-29T13:43:45;2.70;;;2.50;;
12050;SDS011;6086;43.546;26.474;2022-07-29T13:46:14;2.63;;;2.43;;
12050;SDS011;6086;43.546;26.474;2022-07-29T13:48:40;3.63;;;2.70;;
12050;SDS011;6086;43.546;26.474;2022-07-29T13:51:07;3.43;;;2.90;;
12050;SDS011;6086;43.546;26.474;2022-07-29T13:53:34;2.67;;;2.47;;
12050;SDS011;6086;43.546;26.474;2022-07-29T13:56:01;2.80;;;2.60;;
12050;SDS011;6086;43.546;26.474;2022-07-29T13:58:30;2.70;;;2.50;;
12050;SDS011;6086;43.546;26.474;2022-07-29T14:00:57;2.47;;;2.37;;
12050;SDS011;6086;43.546;26.474;2022-07-29T14:03:26;2.93;;;2.60;;
12050;SDS011;6086;43.546;26.474;2022-07-29T14:05:53;2.80;;;2.60;;
12050;SDS011;6086;43.546;26.474;2022-07-29T14:08:21;3.70;;;2.33;;
12050;SDS011;6086;43.546;26.474;2022-07-29T14:10:48;2.43;;;2.33;;
12050;SDS011;6086;43.546;26.474;2022-07-29T14:13:15;2.70;;;2.50;;
12050;SDS011;6086;43.546;26.474;2022-07-29T14:15:42;2.60;;;2.40;;
12050;SDS011;6086;43.546;26.474;2022-07-29T14:18:09;2.63;;;2.43;;
12050;SDS011;6086;43.546;26.474;2022-07-29T14:20:37;3.57;;;2.60;;
12050;SDS011;6086;43.546;26.474;2022-07-29T14:23:04;2.77;;;2.57;;
12050;SDS011;6086;43.546;26.474;2022-07-29T14:25:31;3.00;;;2.73;;
12050;SDS011;6086;43.546;26.474;2022-07-29T14:27:57;2.43;;;2.23;;
12050;SDS011;6086;43.546;26.474;2022-07-29T14:30:24;4.17;;;2.60;;
12050;SDS011;6086;43.546;26.474;2022-07-29T14:32:51;4.20;;;2.80;;
12050;SDS011;6086;43.546;26.474;2022-07-29T14:35:18;2.90;;;2.53;;
12050;SDS011;6086;43.546;26.474;2022-07-29T14:37:47;2.90;;;2.70;;
12050;SDS011;6086;43.546;26.474;2022-07-29T14:40:14;2.97;;;2.77;;
12050;SDS011;6086;43.546;26.474;2022-07-29T14:42:41;2.63;;;2.43;;
12050;SDS011;6086;43.546;26.474;2022-07-29T14:45:08;5.63;;;2.60;;
12050;SDS011;6086;43.546;26.474;2022-07-29T14:47:36;4.23;;;2.67;;
12050;SDS011;6086;43.546;26.474;2022-07-29T14:50:03;2.70;;;2.40;;
12050;SDS011;6086;43.546;26.474;2022-07-29T14:52:32;3.13;;;2.93;;
12050;SDS011;6086;43.546;26.474;2022-07-29T14:55:00;2.67;;;2.47;;
12050;SDS011;6086;43.546;26.474;2022-07-29T14:57:27;2.87;;;2.47;;
12050;SDS011;6086;43.546;26.474;2022-07-29T14:59:54;2.77;;;2.57;;
12050;SDS011;6086;43.546;26.474;2022-07-29T15:02:21;3.13;;;2.83;;
12050;SDS011;6086;43.546;26.474;2022-07-29T15:04:48;3.17;;;2.87;;
12050;SDS011;6086;43.546;26.474;2022-07-29T15:07:15;2.97;;;2.50;;
12050;SDS011;6086;43.546;26.474;2022-07-29T15:09:42;3.43;;;3.10;;
12050;SDS011;6086;43.546;26.474;2022-07-29T15:12:11;2.43;;;2.23;;
12050;SDS011;6086;43.546;26.474;2022-07-29T15:14:38;2.70;;;2.50;;
12050;SDS011;6086;43.546;26.474;2022-07-29T15:17:05;2.90;;;2.70;;
12050;SDS011;6086;43.546;26.474;2022-07-29T15:19:32;3.17;;;2.50;;
12050;SDS011;6086;43.546;26.474;2022-07-29T15:21:59;2.63;;;2.47;;
12050;SDS011;6086;43.546;26.474;2022-07-29T15:24:26;2.93;;;2.67;;
12050;SDS011;6086;43.546;26.474;2022-07-29T15:26:53;3.07;;;2.80;;
12050;SDS011;6086;43.546;26.474;2022-07-29T15:29:22;3.70;;;2.40;;
12050;SDS011;6086;43.546;26.474;2022-07-29T15:31:49;2.73;;;2.53;;
12050;SDS011;6086;43.546;26.474;2022-07-29T15:34:16;2.70;;;2.50;;
12050;SDS011;6086;43.546;26.474;2022-07-29T15:36:45;2.57;;;2.47;;
12050;SDS011;6086;43.546;26.474;2022-07-29T15:39:12;3.13;;;2.40;;
12050;SDS011;6086;43.546;26.474;2022-07-29T15:41:39;4.13;;;3.23;;
12050;SDS011;6086;43.546;26.474;2022-07-29T15:44:06;4.50;;;3.23;;
12050;SDS011;6086;43.546;26.474;2022-07-29T15:46:34;2.60;;;2.50;;
12050;SDS011;6086;43.546;26.474;2022-07-29T15:49:18;2.90;;;2.70;;